sensor_id;sensor_type;location;lat;lon;timestamp;pressure;altitude;pressure_sealevel;temperature;humidity
47556;BME280;33291;46.222;26.460;2024-03-06T00:01:58;96395.78;;;3.42;95.78
47556;BME280;33291;46.222;26.460;2024-03-06T00:04:23;96396.69;;;3.41;95.85
47556;BME280;33291;46.222;26.460;2024-03-06T00:06:49;96410.09;;;3.46;95.83
47556;BME280;33291;46.222;26.460;2024-03-06T00:09:17;96398.44;;;3.40;95.63
47556;BME280;33291;46.222;26.460;2024-03-06T00:11:44;96404.03;;;3.47;95.72
47556;BME280;33291;46.222;26.460;2024-03-06T00:14:09;96406.63;;;3.47;95.89
47556;BME280;33291;46.222;26.460;2024-03-06T00:16:38;96401.56;;;3.45;95.71
47556;BME280;33291;46.222;26.460;2024-03-06T00:19:04;96405.59;;;3.49;95.43
47556;BME280;33291;46.222;26.460;2024-03-06T00:21:29;96396.50;;;3.44;95.70
47556;BME280;33291;46.222;26.460;2024-03-06T00:23:55;96399.19;;;3.42;95.41
47556;BME280;33291;46.222;26.460;2024-03-06T00:26:21;96402.47;;;3.44;95.64
47556;BME280;33291;46.222;26.460;2024-03-06T00:28:47;96411.03;;;3.45;95.69
47556;BME280;33291;46.222;26.460;2024-03-06T00:31:13;96406.81;;;3.44;95.86
47556;BME280;33291;46.222;26.460;2024-03-06T00:33:39;96399.47;;;3.37;96.00
47556;BME280;33291;46.222;26.460;2024-03-06T00:36:06;96412.16;;;3.41;96.10
47556;BME280;33291;46.222;26.460;2024-03-06T00:38:31;96412.16;;;3.41;96.32
47556;BME280;33291;46.222;26.460;2024-03-06T00:40:57;96416.38;;;3.42;96.50
47556;BME280;33291;46.222;26.460;2024-03-06T00:43:23;96419.69;;;3.44;96.14
47556;BME280;33291;46.222;26.460;2024-03-06T00:45:49;96422.97;;;3.46;96.27
47556;BME280;33291;46.222;26.460;2024-03-06T00:48:14;96421.97;;;3.48;96.08
47556;BME280;33291;46.222;26.460;2024-03-06T00:50:40;96406.09;;;3.42;96.32
47556;BME280;33291;46.222;26.460;2024-03-06T00:53:06;96407.00;;;3.41;96.38
47556;BME280;33291;46.222;26.460;2024-03-06T00:55:32;96413.72;;;3.43;96.24
47556;BME280;33291;46.222;26.460;2024-03-06T00:57:58;96406.25;;;3.38;96.20
47556;BME280;33291;46.222;26.460;2024-03-06T01:00:23;96402.97;;;3.36;96.73
47556;BME280;33291;46.222;26.460;2024-03-06T01:02:49;96408.81;;;3.38;96.90
47556;BME280;33291;46.222;26.460;2024-03-06T01:05:14;96419.13;;;3.38;97.11
47556;BME280;33291;46.222;26.460;2024-03-06T01:07:41;96409.56;;;3.41;96.88
47556;BME280;33291;46.222;26.460;2024-03-06T01:10:08;96412.44;;;3.36;96.82
47556;BME280;33291;46.222;26.460;2024-03-06T01:12:34;96402.53;;;3.30;96.41
47556;BME280;33291;46.222;26.460;2024-03-06T01:14:59;96412.34;;;3.37;96.53
47556;BME280;33291;46.222;26.460;2024-03-06T01:17:25;96422.09;;;3.32;96.57
47556;BME280;33291;46.222;26.460;2024-03-06T01:19:51;96422.28;;;3.29;96.41
47556;BME280;33291;46.222;26.460;2024-03-06T01:22:18;96409.88;;;3.22;96.04
47556;BME280;33291;46.222;26.460;2024-03-06T01:24:44;96425.16;;;3.25;96.29
47556;BME280;33291;46.222;26.460;2024-03-06T01:27:09;96410.19;;;3.17;96.01
47556;BME280;33291;46.222;26.460;2024-03-06T01:29:35;96413.59;;;3.17;96.22
47556;BME280;33291;46.222;26.460;2024-03-06T01:32:01;96414.78;;;3.12;95.90
47556;BME280;33291;46.222;26.460;2024-03-06T01:34:27;96421.94;;;3.07;95.70
47556;BME280;33291;46.222;26.460;2024-03-06T01:36:52;96428.94;;;3.05;95.64
47556;BME280;33291;46.222;26.460;2024-03-06T01:39:18;96432.00;;;2.97;95.37
47556;BME280;33291;46.222;26.460;2024-03-06T01:41:48;96434.94;;;2.91;95.61
47556;BME280;33291;46.222;26.460;2024-03-06T01:44:16;96436.03;;;2.87;95.54
47556;BME280;33291;46.222;26.460;2024-03-06T01:46:45;96438.91;;;2.82;95.86
47556;BME280;33291;46.222;26.460;2024-03-06T01:49:12;96442.41;;;2.81;95.68
47556;BME280;33291;46.222;26.460;2024-03-06T01:51:40;96442.75;;;2.75;95.77
47556;BME280;33291;46.222;26.460;2024-03-06T01:54:06;96438.81;;;2.69;95.65
47556;BME280;33291;46.222;26.460;2024-03-06T01:56:33;96442.66;;;2.76;95.71
47556;BME280;33291;46.222;26.460;2024-03-06T01:59:01;96446.88;;;2.77;95.91
47556;BME280;33291;46.222;26.460;2024-03-06T02:01:28;96440.53;;;2.69;95.99
47556;BME280;33291;46.222;26.460;2024-03-06T02:03:54;96443.78;;;2.72;95.36
47556;BME280;33291;46.222;26.460;2024-03-06T02:06:21;96453.97;;;2.74;95.43
47556;BME280;33291;46.222;26.460;2024-03-06T02:08:46;96449.00;;;2.71;94.90
47556;BME280;33291;46.222;26.460;2024-03-06T02:11:12;96443.47;;;2.62;95.19
47556;BME280;33291;46.222;26.460;2024-03-06T02:13:45;96444.16;;;2.66;95.29
47556;BME280;33291;46.222;26.460;2024-03-06T02:16:10;96445.97;;;2.64;95.17
47556;BME280;33291;46.222;26.460;2024-03-06T02:18:37;96447.91;;;2.60;95.03
47556;BME280;33291;46.222;26.460;2024-03-06T02:21:04;96445.50;;;2.57;95.19
47556;BME280;33291;46.222;26.460;2024-03-06T02:23:32;96453.31;;;2.56;95.88
47556;BME280;33291;46.222;26.460;2024-03-06T02:25:58;96451.75;;;2.53;95.52
47556;BME280;33291;46.222;26.460;2024-03-06T02:28:23;96450.28;;;2.49;95.77
47556;BME280;33291;46.222;26.460;2024-03-06T02:30:50;96465.72;;;2.49;95.82
47556;BME280;33291;46.222;26.460;2024-03-06T02:33:17;96458.16;;;2.46;96.08
47556;BME280;33291;46.222;26.460;2024-03-06T02:35:43;96451.91;;;2.36;95.78
47556;BME280;33291;46.222;26.460;2024-03-06T02:38:10;96461.09;;;2.40;96.02
47556;BME280;33291;46.222;26.460;2024-03-06T02:40:35;96466.50;;;2.35;95.58
47556;BME280;33291;46.222;26.460;2024-03-06T02:43:01;96451.78;;;2.23;95.45
47556;BME280;33291;46.222;26.460;2024-03-06T02:45:27;96458.19;;;2.16;95.72
47556;BME280;33291;46.222;26.460;2024-03-06T02:47:53;96466.47;;;2.21;95.72
47556;BME280;33291;46.222;26.460;2024-03-06T02:50:19;96456.63;;;2.13;95.07
47556;BME280;33291;46.222;26.460;2024-03-06T02:52:46;96458.63;;;2.08;94.32
47556;BME280;33291;46.222;26.460;2024-03-06T02:55:12;96458.06;;;2.03;94.38
47556;BME280;33291;46.222;26.460;2024-03-06T02:57:38;96472.50;;;2.05;94.24
47556;BME280;33291;46.222;26.460;2024-03-06T03:00:03;96466.03;;;1.98;94.14
47556;BME280;33291;46.222;26.460;2024-03-06T03:02:29;96469.59;;;1.95;94.26
47556;BME280;33291;46.222;26.460;2024-03-06T03:04:56;96472.59;;;1.88;94.23
47556;BME280;33291;46.222;26.460;2024-03-06T03:07:22;96468.63;;;1.82;94.27
47556;BME280;33291;46.222;26.460;2024-03-06T03:09:48;96457.41;;;1.69;94.08
47556;BME280;33291;46.222;26.460;2024-03-06T03:12:14;96465.09;;;1.69;94.52
47556;BME280;33291;46.222;26.460;2024-03-06T03:14:40;96462.88;;;1.63;94.47
47556;BME280;33291;46.222;26.460;2024-03-06T03:17:06;96466.19;;;1.65;94.63
47556;BME280;33291;46.222;26.460;2024-03-06T03:19:32;96464.69;;;1.60;94.90
47556;BME280;33291;46.222;26.460;2024-03-06T03:21:58;96458.13;;;1.55;94.99
47556;BME280;33291;46.222;26.460;2024-03-06T03:24:24;96461.72;;;1.52;95.13
47556;BME280;33291;46.222;26.460;2024-03-06T03:26:52;96471.81;;;1.55;95.20
47556;BME280;33291;46.222;26.460;2024-03-06T03:29:18;96468.50;;;1.53;95.65
47556;BME280;33291;46.222;26.460;2024-03-06T03:31:44;96474.66;;;1.51;95.84
47556;BME280;33291;46.222;26.460;2024-03-06T03:34:10;96473.72;;;1.52;95.94
47556;BME280;33291;46.222;26.460;2024-03-06T03:36:42;96477.13;;;1.52;95.78
47556;BME280;33291;46.222;26.460;2024-03-06T03:39:09;96476.19;;;1.53;95.97
47556;BME280;33291;46.222;26.460;2024-03-06T03:41:46;96488.03;;;1.56;95.68
47556;BME280;33291;46.222;26.460;2024-03-06T03:44:21;96486.16;;;1.59;95.77
47556;BME280;33291;46.222;26.460;2024-03-06T03:46:47;96485.22;;;1.60;95.80
47556;BME280;33291;46.222;26.460;2024-03-06T03:49:12;96484.16;;;1.65;96.05
47556;BME280;33291;46.222;26.460;2024-03-06T03:51:39;96494.44;;;1.65;95.87
47556;BME280;33291;46.222;26.460;2024-03-06T03:54:05;96491.94;;;1.63;96.28
47556;BME280;33291;46.222;26.460;2024-03-06T03:56:31;96495.31;;;1.64;96.59
47556;BME280;33291;46.222;26.460;2024-03-06T03:58:57;96496.00;;;1.67;96.83
47556;BME280;33291;46.222;26.460;2024-03-06T04:01:24;96498.50;;;1.69;96.65
47556;BME280;33291;46.222;26.460;2024-03-06T04:03:50;96491.53;;;1.71;96.87
47556;BME280;33291;46.222;26.460;2024-03-06T04:06:16;96490.63;;;1.72;96.65
47556;BME280;33291;46.222;26.460;2024-03-06T04:08:42;96500.88;;;1.72;96.57
47556;BME280;33291;46.222;26.460;2024-03-06T04:11:08;96495.84;;;1.70;96.29
47556;BME280;33291;46.222;26.460;2024-03-06T04:13:37;96497.56;;;1.70;95.94
47556;BME280;33291;46.222;26.460;2024-03-06T04:16:03;96490.78;;;1.69;96.41
47556;BME280;33291;46.222;26.460;2024-03-06T04:18:29;96493.28;;;1.70;97.01
47556;BME280;33291;46.222;26.460;2024-03-06T04:20:56;96482.31;;;1.67;97.10
47556;BME280;33291;46.222;26.460;2024-03-06T04:23:22;96491.53;;;1.71;97.06
47556;BME280;33291;46.222;26.460;2024-03-06T04:25:47;96495.84;;;1.70;97.15
47556;BME280;33291;46.222;26.460;2024-03-06T04:28:13;96501.78;;;1.71;97.16
47556;BME280;33291;46.222;26.460;2024-03-06T04:30:38;96494.25;;;1.68;97.47
47556;BME280;33291;46.222;26.460;2024-03-06T04:33:04;96493.53;;;1.66;97.41
47556;BME280;33291;46.222;26.460;2024-03-06T04:35:30;96493.34;;;1.69;97.78
47556;BME280;33291;46.222;26.460;2024-03-06T04:37:55;96497.56;;;1.70;97.43
47556;BME280;33291;46.222;26.460;2024-03-06T04:40:21;96487.38;;;1.68;97.79
47556;BME280;33291;46.222;26.460;2024-03-06T04:42:48;96493.00;;;1.75;97.85
47556;BME280;33291;46.222;26.460;2024-03-06T04:45:17;96486.22;;;1.74;97.60
47556;BME280;33291;46.222;26.460;2024-03-06T04:47:43;96482.75;;;1.75;97.73
47556;BME280;33291;46.222;26.460;2024-03-06T04:50:12;96501.38;;;1.78;97.62
47556;BME280;33291;46.222;26.460;2024-03-06T04:52:41;96487.88;;;1.75;97.30
47556;BME280;33291;46.222;26.460;2024-03-06T04:55:07;96500.22;;;1.84;97.47
47556;BME280;33291;46.222;26.460;2024-03-06T04:57:36;96509.72;;;1.82;97.49
47556;BME280;33291;46.222;26.460;2024-03-06T05:00:03;96512.38;;;1.81;97.28
47556;BME280;33291;46.222;26.460;2024-03-06T05:02:32;96509.88;;;1.79;97.35
47556;BME280;33291;46.222;26.460;2024-03-06T05:05:00;96513.22;;;1.81;97.45
47556;BME280;33291;46.222;26.460;2024-03-06T05:07:27;96513.97;;;1.83;97.27
47556;BME280;33291;46.222;26.460;2024-03-06T05:09:53;96517.19;;;1.87;97.37
47556;BME280;33291;46.222;26.460;2024-03-06T05:12:19;96514.78;;;1.84;97.35
47556;BME280;33291;46.222;26.460;2024-03-06T05:14:44;96506.59;;;1.77;97.17
47556;BME280;33291;46.222;26.460;2024-03-06T05:17:10;96509.97;;;1.77;97.17
47556;BME280;33291;46.222;26.460;2024-03-06T05:19:36;96516.69;;;1.80;97.58
47556;BME280;33291;46.222;26.460;2024-03-06T05:22:02;96521.81;;;1.80;97.40
47556;BME280;33291;46.222;26.460;2024-03-06T05:24:29;96522.66;;;1.81;97.49
47556;BME280;33291;46.222;26.460;2024-03-06T05:26:55;96523.50;;;1.81;97.80
47556;BME280;33291;46.222;26.460;2024-03-06T05:29:21;96529.44;;;1.82;97.92
47556;BME280;33291;46.222;26.460;2024-03-06T05:31:46;96527.69;;;1.82;97.89
47556;BME280;33291;46.222;26.460;2024-03-06T05:34:12;96536.25;;;1.83;98.07
47556;BME280;33291;46.222;26.460;2024-03-06T05:36:37;96539.56;;;1.85;98.10
47556;BME280;33291;46.222;26.460;2024-03-06T05:39:03;96538.75;;;1.84;98.28
47556;BME280;33291;46.222;26.460;2024-03-06T05:41:41;96533.44;;;1.87;98.25
47556;BME280;33291;46.222;26.460;2024-03-06T05:44:07;96540.06;;;1.91;98.05
47556;BME280;33291;46.222;26.460;2024-03-06T05:46:33;96543.03;;;2.00;98.17
47556;BME280;33291;46.222;26.460;2024-03-06T05:48:59;96541.19;;;2.02;97.90
47556;BME280;33291;46.222;26.460;2024-03-06T05:51:25;96540.38;;;2.01;98.12
47556;BME280;33291;46.222;26.460;2024-03-06T05:53:50;96549.66;;;2.04;98.10
47556;BME280;33291;46.222;26.460;2024-03-06T05:56:19;96550.47;;;2.04;98.21
47556;BME280;33291;46.222;26.460;2024-03-06T05:58:45;96550.41;;;2.06;98.36
47556;BME280;33291;46.222;26.460;2024-03-06T06:01:15;96552.78;;;2.09;98.28
47556;BME280;33291;46.222;26.460;2024-03-06T06:03:44;96552.78;;;2.09;98.75
47556;BME280;33291;46.222;26.460;2024-03-06T06:06:09;96550.94;;;2.11;98.92
47556;BME280;33291;46.222;26.460;2024-03-06T06:08:35;96553.53;;;2.11;98.93
47556;BME280;33291;46.222;26.460;2024-03-06T06:11:01;96551.03;;;2.09;99.05
47556;BME280;33291;46.222;26.460;2024-03-06T06:13:28;96544.91;;;2.12;99.26
47556;BME280;33291;46.222;26.460;2024-03-06T06:15:54;96547.72;;;2.23;99.44
47556;BME280;33291;46.222;26.460;2024-03-06T06:18:20;96550.84;;;2.28;99.12
47556;BME280;33291;46.222;26.460;2024-03-06T06:20:46;96542.97;;;2.31;99.38
47556;BME280;33291;46.222;26.460;2024-03-06T06:23:11;96537.00;;;2.31;98.79
47556;BME280;33291;46.222;26.460;2024-03-06T06:25:37;96554.22;;;2.45;99.32
47556;BME280;33291;46.222;26.460;2024-03-06T06:28:03;96537.13;;;2.44;98.96
47556;BME280;33291;46.222;26.460;2024-03-06T06:30:29;96534.38;;;2.47;99.05
47556;BME280;33291;46.222;26.460;2024-03-06T06:32:55;96547.38;;;2.60;98.82
47556;BME280;33291;46.222;26.460;2024-03-06T06:35:20;96550.69;;;2.62;98.65
47556;BME280;33291;46.222;26.460;2024-03-06T06:37:47;96546.16;;;2.65;98.76
47556;BME280;33291;46.222;26.460;2024-03-06T06:40:13;96537.38;;;2.70;98.45
47556;BME280;33291;46.222;26.460;2024-03-06T06:42:44;96544.63;;;2.77;98.20
47556;BME280;33291;46.222;26.460;2024-03-06T06:45:15;96545.31;;;2.81;98.28
47556;BME280;33291;46.222;26.460;2024-03-06T06:47:41;96534.84;;;2.84;98.03
47556;BME280;33291;46.222;26.460;2024-03-06T06:50:07;96536.94;;;2.92;97.76
47556;BME280;33291;46.222;26.460;2024-03-06T06:52:35;96539.25;;;2.96;97.99
47556;BME280;33291;46.222;26.460;2024-03-06T06:55:01;96539.06;;;2.99;97.74
47556;BME280;33291;46.222;26.460;2024-03-06T06:57:27;96536.22;;;3.04;97.78
47556;BME280;33291;46.222;26.460;2024-03-06T06:59:52;96533.38;;;3.09;97.26
47556;BME280;33291;46.222;26.460;2024-03-06T07:02:18;96539.81;;;3.16;97.32
47556;BME280;33291;46.222;26.460;2024-03-06T07:04:44;96530.88;;;3.22;96.83
47556;BME280;33291;46.222;26.460;2024-03-06T07:07:09;96539.97;;;3.27;96.67
47556;BME280;33291;46.222;26.460;2024-03-06T07:09:35;96537.03;;;3.33;95.85
47556;BME280;33291;46.222;26.460;2024-03-06T07:12:01;96540.16;;;3.38;95.79
47556;BME280;33291;46.222;26.460;2024-03-06T07:14:28;96535.00;;;3.38;94.66
47556;BME280;33291;46.222;26.460;2024-03-06T07:16:53;96536.09;;;3.49;94.42
47556;BME280;33291;46.222;26.460;2024-03-06T07:19:19;96535.72;;;3.55;93.45
47556;BME280;33291;46.222;26.460;2024-03-06T07:21:45;96515.41;;;3.50;92.44
47556;BME280;33291;46.222;26.460;2024-03-06T07:24:11;96530.00;;;3.64;92.04
47556;BME280;33291;46.222;26.460;2024-03-06T07:26:36;96530.88;;;3.78;92.29
47556;BME280;33291;46.222;26.460;2024-03-06T07:29:02;96532.78;;;3.88;91.97
47556;BME280;33291;46.222;26.460;2024-03-06T07:31:28;96520.25;;;3.97;90.24
47556;BME280;33291;46.222;26.460;2024-03-06T07:33:54;96532.28;;;4.11;89.51
47556;BME280;33291;46.222;26.460;2024-03-06T07:36:20;96530.00;;;4.19;88.57
47556;BME280;33291;46.222;26.460;2024-03-06T07:38:45;96524.66;;;4.22;87.60
47556;BME280;33291;46.222;26.460;2024-03-06T07:41:11;96531.31;;;4.39;85.74
47556;BME280;33291;46.222;26.460;2024-03-06T07:43:37;96531.53;;;4.49;83.96
47556;BME280;33291;46.222;26.460;2024-03-06T07:46:04;96535.19;;;4.59;83.16
47556;BME280;33291;46.222;26.460;2024-03-06T07:48:41;96531.88;;;4.70;82.30
47556;BME280;33291;46.222;26.460;2024-03-06T07:51:07;96530.47;;;4.78;78.44
47556;BME280;33291;46.222;26.460;2024-03-06T07:53:33;96518.56;;;4.89;76.57
47556;BME280;33291;46.222;26.460;2024-03-06T07:55:58;96525.63;;;5.00;77.12
47556;BME280;33291;46.222;26.460;2024-03-06T07:58:24;96528.50;;;5.08;75.48
47556;BME280;33291;46.222;26.460;2024-03-06T08:00:50;96520.44;;;5.12;73.43
47556;BME280;33291;46.222;26.460;2024-03-06T08:03:18;96528.69;;;5.18;73.17
47556;BME280;33291;46.222;26.460;2024-03-06T08:05:43;96529.19;;;5.36;74.17
47556;BME280;33291;46.222;26.460;2024-03-06T08:08:09;96535.25;;;5.47;73.35
47556;BME280;33291;46.222;26.460;2024-03-06T08:10:34;96533.28;;;5.51;73.71
47556;BME280;33291;46.222;26.460;2024-03-06T08:13:00;96529.34;;;5.58;74.35
47556;BME280;33291;46.222;26.460;2024-03-06T08:15:25;96543.59;;;5.64;74.86
47556;BME280;33291;46.222;26.460;2024-03-06T08:17:51;96534.94;;;5.65;74.73
47556;BME280;33291;46.222;26.460;2024-03-06T08:20:17;96542.34;;;5.69;74.47
47556;BME280;33291;46.222;26.460;2024-03-06T08:22:43;96538.00;;;5.70;73.86
47556;BME280;33291;46.222;26.460;2024-03-06T08:25:10;96536.34;;;5.69;73.26
47556;BME280;33291;46.222;26.460;2024-03-06T08:27:39;96543.88;;;5.72;72.89
47556;BME280;33291;46.222;26.460;2024-03-06T08:30:05;96537.91;;;5.72;72.41
47556;BME280;33291;46.222;26.460;2024-03-06T08:32:35;96543.44;;;5.78;72.23
47556;BME280;33291;46.222;26.460;2024-03-06T08:35:07;96548.41;;;5.81;70.95
47556;BME280;33291;46.222;26.460;2024-03-06T08:37:36;96548.19;;;5.84;71.36
47556;BME280;33291;46.222;26.460;2024-03-06T08:40:03;96544.34;;;5.90;72.14
47556;BME280;33291;46.222;26.460;2024-03-06T08:42:29;96543.44;;;5.91;72.68
47556;BME280;33291;46.222;26.460;2024-03-06T08:44:54;96537.56;;;5.89;73.36
47556;BME280;33291;46.222;26.460;2024-03-06T08:47:20;96549.19;;;5.95;73.62
47556;BME280;33291;46.222;26.460;2024-03-06T08:49:45;96545.69;;;5.96;72.58
47556;BME280;33291;46.222;26.460;2024-03-06T08:52:13;96541.66;;;5.92;65.04
47556;BME280;33291;46.222;26.460;2024-03-06T08:54:40;96546.50;;;5.96;67.00
47556;BME280;33291;46.222;26.460;2024-03-06T08:57:10;96547.16;;;6.00;65.62
47556;BME280;33291;46.222;26.460;2024-03-06T08:59:36;96550.56;;;6.00;65.62
47556;BME280;33291;46.222;26.460;2024-03-06T09:02:18;96553.75;;;6.04;66.26
47556;BME280;33291;46.222;26.460;2024-03-06T09:04:45;96552.69;;;6.07;66.36
47556;BME280;33291;46.222;26.460;2024-03-06T09:07:12;96551.88;;;6.06;63.59
47556;BME280;33291;46.222;26.460;2024-03-06T09:09:38;96548.47;;;6.05;63.49
47556;BME280;33291;46.222;26.460;2024-03-06T09:12:08;96550.00;;;6.08;62.07
47556;BME280;33291;46.222;26.460;2024-03-06T09:14:39;96551.88;;;6.06;60.87
47556;BME280;33291;46.222;26.460;2024-03-06T09:17:05;96559.09;;;6.14;60.39
47556;BME280;33291;46.222;26.460;2024-03-06T09:19:32;96556.41;;;6.15;58.43
47556;BME280;33291;46.222;26.460;2024-03-06T09:21:58;96551.22;;;6.15;59.22
47556;BME280;33291;46.222;26.460;2024-03-06T09:24:24;96555.03;;;6.22;58.85
47556;BME280;33291;46.222;26.460;2024-03-06T09:26:53;96565.06;;;6.27;58.91
47556;BME280;33291;46.222;26.460;2024-03-06T09:29:19;96562.13;;;6.32;58.58
47556;BME280;33291;46.222;26.460;2024-03-06T09:31:46;96558.81;;;6.30;57.21
47556;BME280;33291;46.222;26.460;2024-03-06T09:34:15;96552.22;;;6.26;57.88
47556;BME280;33291;46.222;26.460;2024-03-06T09:36:45;96562.34;;;6.29;59.31
47556;BME280;33291;46.222;26.460;2024-03-06T09:39:12;96557.19;;;6.29;60.60
47556;BME280;33291;46.222;26.460;2024-03-06T09:41:37;96564.94;;;6.29;61.41
47556;BME280;33291;46.222;26.460;2024-03-06T09:44:06;96562.34;;;6.29;61.67
47556;BME280;33291;46.222;26.460;2024-03-06T09:46:33;96553.75;;;6.28;61.71
47556;BME280;33291;46.222;26.460;2024-03-06T09:49:01;96540.22;;;6.25;59.64
47556;BME280;33291;46.222;26.460;2024-03-06T09:51:27;96556.50;;;6.38;60.15
47556;BME280;33291;46.222;26.460;2024-03-06T09:53:54;96553.59;;;6.43;59.12
47556;BME280;33291;46.222;26.460;2024-03-06T09:56:20;96560.38;;;6.44;57.37
47556;BME280;33291;46.222;26.460;2024-03-06T09:58:46;96555.84;;;6.47;57.68
47556;BME280;33291;46.222;26.460;2024-03-06T10:01:13;96558.91;;;6.52;56.66
47556;BME280;33291;46.222;26.460;2024-03-06T10:03:39;96556.59;;;6.61;57.13
47556;BME280;33291;46.222;26.460;2024-03-06T10:06:09;96556.38;;;6.64;57.71
47556;BME280;33291;46.222;26.460;2024-03-06T10:08:35;96551.91;;;6.66;57.49
47556;BME280;33291;46.222;26.460;2024-03-06T10:11:03;96559.44;;;6.69;57.60
47556;BME280;33291;46.222;26.460;2024-03-06T10:13:29;96561.78;;;6.72;57.54
47556;BME280;33291;46.222;26.460;2024-03-06T10:16:02;96556.63;;;6.72;57.57
47556;BME280;33291;46.222;26.460;2024-03-06T10:18:29;96557.31;;;6.74;57.53
47556;BME280;33291;46.222;26.460;2024-03-06T10:20:56;96553.22;;;6.71;57.70
47556;BME280;33291;46.222;26.460;2024-03-06T10:23:22;96562.25;;;6.77;57.80
47556;BME280;33291;46.222;26.460;2024-03-06T10:25:49;96557.94;;;6.78;57.54
47556;BME280;33291;46.222;26.460;2024-03-06T10:28:22;96558.97;;;6.75;57.34
47556;BME280;33291;46.222;26.460;2024-03-06T10:30:49;96552.75;;;6.78;56.31
47556;BME280;33291;46.222;26.460;2024-03-06T10:33:17;96555.34;;;6.78;56.34
47556;BME280;33291;46.222;26.460;2024-03-06T10:35:47;96550.50;;;6.73;56.32
47556;BME280;33291;46.222;26.460;2024-03-06T10:38:19;96558.16;;;6.74;56.11
47556;BME280;33291;46.222;26.460;2024-03-06T10:40:45;96558.97;;;6.75;55.94
47556;BME280;33291;46.222;26.460;2024-03-06T10:43:11;96555.91;;;6.70;56.26
47556;BME280;33291;46.222;26.460;2024-03-06T10:45:40;96555.69;;;6.73;56.45
47556;BME280;33291;46.222;26.460;2024-03-06T10:48:09;96548.84;;;6.72;56.65
47556;BME280;33291;46.222;26.460;2024-03-06T10:50:41;96550.28;;;6.76;56.54
47556;BME280;33291;46.222;26.460;2024-03-06T10:53:11;96547.69;;;6.76;56.54
47556;BME280;33291;46.222;26.460;2024-03-06T10:55:37;96549.56;;;6.74;56.49
47556;BME280;33291;46.222;26.460;2024-03-06T10:58:07;96540.97;;;6.73;56.68
47556;BME280;33291;46.222;26.460;2024-03-06T11:00:45;96540.63;;;6.78;56.46
47556;BME280;33291;46.222;26.460;2024-03-06T11:03:14;96534.63;;;6.78;56.44
47556;BME280;33291;46.222;26.460;2024-03-06T11:05:42;96538.84;;;6.79;56.43
47556;BME280;33291;46.222;26.460;2024-03-06T11:08:08;96533.56;;;6.80;56.31
47556;BME280;33291;46.222;26.460;2024-03-06T11:10:35;96535.34;;;6.80;56.29
47556;BME280;33291;46.222;26.460;2024-03-06T11:13:02;96535.34;;;6.80;57.14
47556;BME280;33291;46.222;26.460;2024-03-06T11:15:31;96536.25;;;6.79;57.21
47556;BME280;33291;46.222;26.460;2024-03-06T11:17:57;96539.09;;;6.75;57.50
47556;BME280;33291;46.222;26.460;2024-03-06T11:20:23;96533.91;;;6.75;57.13
47556;BME280;33291;46.222;26.460;2024-03-06T11:28:18;96534.25;;;6.71;57.86
47556;BME280;33291;46.222;26.460;2024-03-06T11:30:45;96531.66;;;6.71;57.72
47556;BME280;33291;46.222;26.460;2024-03-06T11:33:13;96528.94;;;6.72;57.90
47556;BME280;33291;46.222;26.460;2024-03-06T11:35:42;96532.38;;;6.73;57.99
47556;BME280;33291;46.222;26.460;2024-03-06T11:38:17;96524.84;;;6.70;57.72
47556;BME280;33291;46.222;26.460;2024-03-06T11:40:48;96525.44;;;6.73;57.48
47556;BME280;33291;46.222;26.460;2024-03-06T11:43:26;96526.25;;;6.74;57.56
47556;BME280;33291;46.222;26.460;2024-03-06T11:45:53;96517.09;;;6.70;57.48
47556;BME280;33291;46.222;26.460;2024-03-06T11:48:19;96524.28;;;6.78;57.91
47556;BME280;33291;46.222;26.460;2024-03-06T11:50:47;96520.03;;;6.76;57.86
47556;BME280;33291;46.222;26.460;2024-03-06T11:53:14;96520.72;;;6.79;57.99
47556;BME280;33291;46.222;26.460;2024-03-06T11:55:39;96513.06;;;6.77;57.86
47556;BME280;33291;46.222;26.460;2024-03-06T11:58:05;96518.47;;;6.74;57.80
47556;BME280;33291;46.222;26.460;2024-03-06T12:00:33;96513.81;;;6.79;58.02
47556;BME280;33291;46.222;26.460;2024-03-06T12:02:59;96514.03;;;6.76;58.04
47556;BME280;33291;46.222;26.460;2024-03-06T12:05:24;96506.63;;;6.83;58.04
47556;BME280;33291;46.222;26.460;2024-03-06T12:07:52;96505.19;;;6.79;57.79
47556;BME280;33291;46.222;26.460;2024-03-06T12:10:18;96515.22;;;6.83;57.71
47556;BME280;33291;46.222;26.460;2024-03-06T12:12:44;96500.88;;;6.79;57.66
47556;BME280;33291;46.222;26.460;2024-03-06T12:15:11;96508.28;;;6.84;57.87
47556;BME280;33291;46.222;26.460;2024-03-06T12:17:47;96504.88;;;6.83;57.33
47556;BME280;33291;46.222;26.460;2024-03-06T12:20:14;96509.09;;;6.84;57.14
47556;BME280;33291;46.222;26.460;2024-03-06T12:25:22;96500.63;;;6.93;56.76
47556;BME280;33291;46.222;26.460;2024-03-06T12:27:49;96510.75;;;6.97;56.91
47556;BME280;33291;46.222;26.460;2024-03-06T12:30:20;96503.72;;;6.99;57.18
47556;BME280;33291;46.222;26.460;2024-03-06T12:32:59;96502.53;;;7.03;56.88
47556;BME280;33291;46.222;26.460;2024-03-06T12:35:28;96499.00;;;7.04;56.43
47556;BME280;33291;46.222;26.460;2024-03-06T12:37:53;96498.88;;;7.05;56.65
47556;BME280;33291;46.222;26.460;2024-03-06T12:40:20;96494.63;;;7.04;55.82
47556;BME280;33291;46.222;26.460;2024-03-06T12:42:46;96500.31;;;7.09;55.73
47556;BME280;33291;46.222;26.460;2024-03-06T12:45:12;96499.94;;;7.03;55.85
47556;BME280;33291;46.222;26.460;2024-03-06T12:47:45;96508.19;;;7.08;55.78
47556;BME280;33291;46.222;26.460;2024-03-06T12:50:13;96505.59;;;7.08;55.58
47556;BME280;33291;46.222;26.460;2024-03-06T12:52:38;96508.19;;;7.08;55.58
47556;BME280;33291;46.222;26.460;2024-03-06T12:55:04;96500.41;;;7.08;55.89
47556;BME280;33291;46.222;26.460;2024-03-06T12:57:33;96508.88;;;7.10;55.79
47556;BME280;33291;46.222;26.460;2024-03-06T13:00:00;96499.94;;;7.03;55.86
47556;BME280;33291;46.222;26.460;2024-03-06T13:02:25;96499.47;;;7.09;55.82
47556;BME280;33291;46.222;26.460;2024-03-06T13:04:51;96504.06;;;7.05;56.13
47556;BME280;33291;46.222;26.460;2024-03-06T13:07:17;96505.97;;;7.03;56.53